Flight Number: EUR2433 Duration: 1:15
Departure: Geneva Cointrin Airport (LSGG) at 07:30 Distance: 462 Nm
Arrival: Split (LDSP) at 08:45 Equipment: A321

Weather Information
Geneve-Cointrin, Switzerland (LSGG) 46-15N 006-08E 416M Nov 18, 2017 - 06:20 AM EST / 2017.11.18 1120 UTC
Wind: from the ENE (070 degrees) at 6 MPH (5 KT):0
Visibility: greater than 7 mile(s):0
Sky conditions: mostly cloudy Temperature: 42 F (6 C) Dew Point: 35 F (2 C) Relative Humidity: 75% Pressure (altimeter): 30.24 in. Hg (1024 hPa)
ob: LSGG 181120Z 07005KT 9999 BKN020 06/02 Q1024 NOSIG cycle: 11
Sunrise: 06:45 Sunset: 15:56 (UTC)

Split / Resnik, Croatia (LDSP) 43-32N 016-18E 21M Nov 18, 2017 - 06:30 AM EST / 2017.11.18 1130 UTC
Wind: from the S (170 degrees) at 3 MPH (3 KT) (direction variable):0
Visibility: greater than 7 mile(s):0 Temperature: 62 F (17 C) Dew Point: 39 F (4 C) Relative Humidity: 41% Pressure (altimeter): 29.91 in. Hg (1013 hPa)
ob: LDSP 181130Z 17003KT 090V250 CAVOK 17/04 Q1013 NOSIG cycle: 11
Sunrise: 05:56 Sunset: 15:23 (UTC)

TAF:2017/11/18 12:27 TAF LDSP 181125Z 1812/1912 10005KT CAVOK TX17/1812Z TN07/1906Z TEMPO 1812/1816 23006KT BECMG 1816/1818 04070KT BECMG 1900/1902 34008KT BECMG 1910/1912 23006KT

Previous Pireps for this route
Date Aircraft Flight time Fuel used Landing rate On time
2016-04-06A32101.2812708-258No
2016-08-28A32101.419894-217No
(pireps marked green are flown by you)

Route map